Latest Weather Observations for Redesdale

IDV60801

Issued at 6:32 pm EST Friday 21 July 2017 (issued every 30 minutes, with the page automatically refreshed every 10 minutes)

About weather observations | Map of weather stations | Latest weather observations for VIC | Other Formats
Station Details ID: 088051 Name: REDESDALE Lat: -37.02 Lon: 144.52 Height: 290.0 m
Data from the previous 72 hours. | See also: Recent months at Redesdale
Date/Time
EST
Temp
°C
App
Temp
°C
Dew
Point
°C
Rel
Hum
%
Delta-T
°C
Wind Press
QNH
hPa
Press
MSL
hPa
Rain since
9am
mm
Dir  Spd
km/h
Gust
km/h
Spd
kts
Gust
kts
21/06:30pm 5.2 3.3 2.9 85 1.0 NNE 2 4 1 2 - - 0.2
21/06:00pm 6.7 4.5 3.5 80 1.4 NNE 4 6 2 3 - - 0.2
21/05:30pm 8.1 5.4 3.9 75 1.8 NE 7 13 4 7 - - 0.2
21/05:00pm 9.4 6.9 3.8 68 2.5 N 6 9 3 5 - - 0.2
21/04:30pm 10.6 8.0 4.1 64 2.9 NNE 7 11 4 6 - - 0.2
21/04:00pm 11.3 8.3 4.3 62 3.2 NNE 9 13 5 7 - - 0.2
21/03:30pm 12.3 9.8 5.0 61 3.4 NNE 7 13 4 7 - - 0.2
21/03:00pm 12.5 10.0 4.5 58 3.7 N 7 13 4 7 - - 0.2
21/02:30pm 12.5 10.0 4.0 56 3.9 NNW 6 13 3 7 - - 0.2
21/02:00pm 12.1 9.1 4.3 59 3.6 N 9 17 5 9 - - 0.2
21/01:30pm 12.0 9.5 4.5 60 3.5 N 7 13 4 7 - - 0.2
21/01:00pm 11.9 9.0 4.4 60 3.4 N 9 13 5 7 - - 0.0
21/12:30pm 11.5 8.8 3.8 59 3.5 NNE 7 15 4 8 - - 0.0
21/12:00pm 11.1 8.4 3.6 60 3.4 NNE 7 13 4 7 - - 0.0
21/11:30am 11.3 9.0 4.7 64 3.0 NNE 6 13 3 7 - - 0.0
21/11:00am 10.2 7.6 4.4 67 2.6 NE 7 9 4 5 - - 0.0
21/10:30am 10.3 9.3 5.7 73 2.1 CALM 0 6 0 3 - - 0.0
21/10:00am 8.1 6.9 4.7 79 1.5 CALM 0 2 0 1 - - 0.0
21/09:30am 6.1 4.2 5.1 93 0.4 SSW 4 6 2 3 - - 0.0
21/09:00am 3.7 0.9 3.4 98 0.1 SSW 7 7 4 4 - - 0.0
21/08:30am 1.0 -2.0 0.9 99 0.0 SW 6 7 3 4 - - 0.0
21/08:00am -0.4 -4.2 -0.7 98 0.1 SSW 9 11 5 6 - - 0.0
21/07:30am -1.9 -4.9 -2.2 98 0.0 S 4 9 2 5 - - 0.0
21/07:00am -1.4 -5.7 -1.7 98 0.0 SSE 11 13 6 7 - - 0.0
21/06:30am -1.0 -4.5 -1.4 97 0.1 S 7 9 4 5 - - 0.0
21/06:00am -0.4 -3.3 -0.8 97 0.1 SSW 4 7 2 4 - - 0.0
21/05:30am 0.1 -2.7 -0.3 97 0.2 SSW 4 6 2 3 - - 0.0
21/05:00am 0.6 -2.5 0.3 98 0.1 SW 6 9 3 5 - - 0.0
21/04:30am -0.1 -3.3 -0.5 97 0.1 S 6 11 3 6 - - 0.0
21/04:00am -0.4 -3.8 -0.8 97 0.1 SSW 7 9 4 5 - - 0.0
21/03:30am -0.4 -2.9 -1.0 96 0.2 SW 2 6 1 3 - - 0.0
21/03:00am 0.5 -2.6 0.1 97 0.1 SW 6 7 3 4 - - 0.0
21/02:30am -0.2 -3.6 -0.8 96 0.2 SW 7 9 4 5 - - 0.0
21/02:00am 0.4 -2.9 -0.2 96 0.2 WSW 7 9 4 5 - - 0.0
21/01:30am 1.0 -2.3 0.4 96 0.2 WSW 7 9 4 5 - - 0.0
21/01:00am 0.0 -3.2 -0.7 95 0.3 SW 6 9 3 5 - - 0.0
21/12:30am 0.1 -3.1 -0.5 96 0.2 WSW 6 7 3 4 - - 0.0
21/12:00am 0.1 -3.1 -0.5 96 0.2 SW 6 9 3 5 - - 0.0
 
Date/Time
EST
Temp
°C
App
Temp
°C
Dew
Point
°C
Rel
Hum
%
Delta-T
°C
Wind Press
QNH
hPa
Press
MSL
hPa
Rain since
9am
mm
Dir  Spd
km/h
Gust
km/h
Spd
kts
Gust
kts
20/11:30pm -0.1 -3.6 -1.1 93 0.4 WSW 7 9 4 5 - - 0.0
20/11:00pm 1.2 -1.9 0.0 92 0.4 SW 6 9 3 5 - - 0.0
20/10:30pm 0.7 -2.6 -0.9 89 0.6 W 6 7 3 4 - - 0.0
20/10:00pm 2.2 -0.9 0.4 88 0.7 WSW 6 7 3 4 - - 0.0
20/09:30pm 2.0 -1.6 0.4 89 0.6 S 9 13 5 7 - - 0.0
20/09:00pm 2.5 -1.1 0.7 88 0.7 SSW 9 13 5 7 - - 0.0
20/08:30pm 2.5 -1.5 0.7 88 0.7 S 11 15 6 8 - - 0.0
20/08:00pm 2.1 -1.6 0.0 86 0.8 SSW 9 15 5 8 - - 0.0
20/07:30pm 3.5 -0.7 1.5 87 0.8 SSW 13 19 7 10 - - 0.0
20/07:00pm 2.8 -0.8 0.5 85 0.9 SSW 9 11 5 6 - - 0.0
20/06:30pm 4.4 -0.2 1.8 83 1.0 SSW 15 22 8 12 - - 0.0
20/06:00pm 4.7 0.5 1.7 81 1.2 SSW 13 19 7 10 - - 0.0
20/05:30pm 5.2 1.0 1.7 78 1.4 SSW 13 19 7 10 - - 0.0
20/05:00pm 6.4 2.7 2.5 76 1.6 SW 11 19 6 10 - - 0.0
20/04:30pm 6.5 1.4 2.8 77 1.6 SSW 19 28 10 15 - - 0.0
20/04:00pm 8.4 3.1 3.1 69 2.3 SSW 20 32 11 17 - - 0.0
20/03:30pm 9.8 4.8 3.8 66 2.7 SSW 19 28 10 15 - - 0.0
20/03:00pm 9.3 3.7 3.3 66 2.6 S 22 33 12 18 - - 0.0
20/02:30pm 10.6 6.4 5.6 71 2.3 SSW 17 26 9 14 - - 0.0
20/02:00pm 10.4 6.1 5.2 70 2.4 SW 17 26 9 14 - - 0.0
20/01:30pm 9.8 5.0 5.8 76 1.9 SW 20 35 11 19 - - 0.0
20/01:00pm 10.7 5.6 3.3 60 3.3 SW 19 32 10 17 - - 0.0
20/12:30pm 11.9 7.2 5.1 63 3.2 SW 19 32 10 17 - - 0.0
20/12:00pm 9.2 4.1 3.2 66 2.6 SW 19 33 10 18 - - 0.0
20/11:30am 10.3 5.7 3.6 63 3.0 SW 17 35 9 19 - - 0.0
20/11:00am 9.2 3.1 2.8 64 2.8 SW 24 39 13 21 - - 0.0
20/10:30am 9.1 3.9 2.7 64 2.8 SW 19 30 10 16 - - 0.0
20/10:00am 9.3 5.3 5.1 75 1.9 SW 15 24 8 13 - - 0.0
20/09:30am 7.9 4.8 5.5 85 1.1 SW 11 20 6 11 - - 0.0
20/09:00am 7.8 3.5 5.4 85 1.1 WSW 17 30 9 16 - - 0.2
20/08:30am 7.1 4.2 4.6 84 1.1 WSW 9 17 5 9 - - 0.2
20/08:00am 6.2 3.8 4.2 87 0.9 SW 6 9 3 5 - - 0.2
20/07:30am 5.6 2.5 3.4 86 0.9 SW 9 19 5 10 - - 0.2
20/07:00am 5.8 2.7 3.6 86 0.9 WSW 9 20 5 11 - - 0.2
20/06:30am 5.7 3.0 3.7 87 0.9 WSW 7 15 4 8 - - 0.2
20/06:00am 6.1 3.1 4.3 88 0.8 WSW 9 20 5 11 - - 0.2
20/05:30am 6.1 3.5 4.4 89 0.7 WSW 7 19 4 10 - - 0.2
20/05:00am 5.8 3.2 4.4 91 0.6 W 7 13 4 7 - - 0.2
20/04:30am 5.5 3.5 4.5 93 0.4 WNW 4 7 2 4 - - 0.2
20/04:00am 4.9 2.8 4.0 94 0.4 WNW 4 6 2 3 - - 0.2
20/03:30am 4.8 3.1 4.1 95 0.3 WNW 2 4 1 2 - - 0.2
20/03:00am 4.5 2.4 3.9 96 0.3 WNW 4 6 2 3 - - 0.2
20/02:30am 4.1 2.3 3.7 97 0.2 WNW 2 4 1 2 - - 0.2
20/02:00am 4.0 2.2 3.7 98 0.1 WNW 2 6 1 3 - - 0.2
20/01:30am 3.2 1.3 2.9 98 0.1 SW 2 6 1 3 - - 0.2
20/01:00am 1.8 -0.3 1.5 98 0.1 SW 2 2 1 1 - - 0.2
20/12:30am 2.0 -0.1 1.6 97 0.2 SW 2 4 1 2 - - 0.2
20/12:00am 1.1 -1.6 0.4 95 0.3 SW 4 4 2 2 - - 0.2
 
Date/Time
EST
Temp
°C
App
Temp
°C
Dew
Point
°C
Rel
Hum
%
Delta-T
°C
Wind Press
QNH
hPa
Press
MSL
hPa
Rain since
9am
mm
Dir  Spd
km/h
Gust
km/h
Spd
kts
Gust
kts
19/11:30pm 1.4 -1.3 0.5 94 0.3 SW 4 6 2 3 - - 0.2
19/11:00pm 3.1 0.3 1.9 92 0.5 SW 6 7 3 4 - - 0.2
19/10:30pm 3.1 0.3 2.1 93 0.4 SW 6 9 3 5 - - 0.2
19/10:00pm 3.9 1.1 2.3 89 0.6 W 6 7 3 4 - - 0.2
19/09:30pm 4.3 1.5 2.0 85 0.9 WSW 6 7 3 4 - - 0.2
19/09:00pm 5.2 2.3 2.4 82 1.2 W 7 13 4 7 - - 0.2
19/08:30pm 5.9 3.0 2.5 79 1.4 WSW 7 13 4 7 - - 0.2
19/08:00pm 5.5 2.5 1.8 77 1.5 WSW 7 9 4 5 - - 0.2
19/07:30pm 5.6 2.5 1.3 74 1.7 SW 7 11 4 6 - - 0.2
19/07:00pm 7.3 2.7 1.6 67 2.4 SSW 15 24 8 13 - - 0.2
19/06:30pm 8.0 4.0 2.7 69 2.3 SW 13 26 7 14 - - 0.2
19/06:00pm 8.2 1.7 2.7 68 2.4 SW 26 39 14 21 - - 0.2
19/05:30pm 9.1 4.5 3.9 70 2.3 SW 17 28 9 15 - - 0.2
19/05:00pm 9.4 4.6 4.6 72 2.2 SW 19 32 10 17 - - 0.2
19/04:30pm 10.5 6.2 5.3 70 2.4 SSW 17 28 9 15 - - 0.2
19/04:00pm 10.3 4.8 5.7 73 2.1 SSW 24 32 13 17 - - 0.2
19/03:30pm 11.3 6.7 6.6 73 2.3 SW 20 28 11 15 - - 0.2
19/03:00pm 13.0 7.8 7.2 68 2.9 SW 24 39 13 21 - - 0.2
19/02:30pm 12.4 7.9 6.2 66 3.0 SSW 19 32 10 17 - - 0.2
19/02:00pm 13.1 8.8 8.0 71 2.6 SW 20 32 11 17 - - 0.2
19/01:30pm 13.0 8.9 8.7 75 2.2 SW 20 32 11 17 - - 0.2
19/01:00pm 11.9 7.4 7.0 72 2.4 SW 20 33 11 18 - - 0.2
19/12:30pm 12.3 7.1 7.2 71 2.5 SW 24 33 13 18 - - 0.2
19/12:00pm 11.7 6.1 7.0 73 2.3 SSW 26 35 14 19 - - 0.0
19/11:30am 11.5 5.4 6.6 72 2.4 SSW 28 46 15 25 - - 0.0
19/11:00am 11.7 5.7 7.2 74 2.2 SSW 28 43 15 23 - - 0.0
19/10:30am 10.9 6.6 7.8 81 1.5 SSW 20 37 11 20 - - 0.0
19/10:00am 10.2 6.3 8.8 91 0.7 SSW 19 30 10 16 - - 0.0
19/09:30am 9.8 8.1 9.7 99 0.1 SW 9 15 5 8 - - 0.0
19/09:00am 9.3 7.4 9.2 99 0.1 SW 9 13 5 7 - - 4.0
19/08:30am 7.6 5.9 7.5 99 0.0 SW 6 9 3 5 - - 4.0
19/08:00am 7.2 4.8 7.1 99 0.0 WSW 9 13 5 7 - - 4.0
19/07:30am 6.9 4.8 6.8 99 0.0 WSW 7 13 4 7 - - 4.0
19/07:00am 6.3 4.7 6.2 99 0.0 WSW 4 7 2 4 - - 4.0
19/06:30am 5.3 3.5 5.2 99 0.0 SW 4 6 2 3 - - 4.0
19/06:00am 5.7 3.4 5.6 99 0.0 SW 7 9 4 5 - - 4.0
19/05:30am 6.0 3.7 5.9 99 0.0 SW 7 15 4 8 - - 4.0
19/05:00am 6.3 3.7 6.2 99 0.0 WSW 9 13 5 7 - - 4.0
19/04:30am 6.2 4.0 6.1 99 0.0 WSW 7 13 4 7 - - 4.0
19/04:00am 6.7 4.8 6.6 99 0.0 W 6 9 3 5 - - 4.0
19/03:30am 7.2 5.4 7.1 99 0.0 WSW 6 11 3 6 - - 4.0
19/03:00am 7.3 5.5 7.2 99 0.0 W 6 13 3 7 - - 3.8
19/02:30am 7.2 5.4 7.1 99 0.0 W 6 9 3 5 - - 3.8
19/02:00am 7.0 5.5 6.9 99 0.0 WNW 4 6 2 3 - - 3.8
19/01:30am 6.6 5.4 6.5 99 0.0 WNW 2 6 1 3 - - 3.8
19/01:00am 6.6 5.0 6.5 99 0.0 NW 4 7 2 4 - - 3.8
19/12:30am 6.2 4.9 6.1 99 0.0 N 2 2 1 1 - - 3.8
19/12:00am 6.7 5.5 6.6 99 0.0 N 2 4 1 2 - - 3.8
 
Date/Time
EST
Temp
°C
App
Temp
°C
Dew
Point
°C
Rel
Hum
%
Delta-T
°C
Wind Press
QNH
hPa
Press
MSL
hPa
Rain since
9am
mm
Dir  Spd
km/h
Gust
km/h
Spd
kts
Gust
kts
18/11:30pm 6.8 5.3 6.7 99 0.0 N 4 4 2 2 - - 3.8
18/11:00pm 6.6 5.0 6.5 99 0.0 N 4 4 2 2 - - 3.8
18/10:30pm 6.7 5.9 6.6 99 0.0 CALM 0 0 0 0 - - 3.8
18/10:00pm 6.7 5.5 6.6 99 0.0 N 2 4 1 2 - - 3.8
18/09:30pm 6.6 5.8 6.5 99 0.0 CALM 0 2 0 1 - - 3.8
18/09:00pm 6.5 4.9 6.4 99 0.0 NNW 4 4 2 2 - - 3.8
18/08:30pm 6.3 4.3 6.2 99 0.0 N 6 7 3 4 - - 3.8
18/08:00pm 6.7 4.8 6.6 99 0.0 N 6 7 3 4 - - 3.8
18/07:30pm 6.8 4.9 6.7 99 0.0 N 6 9 3 5 - - 3.8
18/07:00pm 7.0 5.1 6.9 99 0.0 NNW 6 7 3 4 - - 3.6

Other Formats:

Comma delimited format used in spreadsheet applications
http://www.bom.gov.au/fwo/IDV60801/IDV60801.94859.axf

JavaScript Object Notation format (JSON) in row-major order
http://www.bom.gov.au/fwo/IDV60801/IDV60801.94859.json